Time;durP1;ratioP1;P1;durP2;ratioP2;P2;SDS_P1;SDS_P2;PMS_P1;PMS_P2;Temp;Humidity;BMP_temperature;BMP_pressure;BME280_temperature;BME280_humidity;BME280_pressure;Samples;Min_cycle;Max_cycle;Signal;HPM_P1;HPM_P2
2022/05/29 00:00:39;;;;;;;4.85;2.33;;;;;;;12.08;64.58;101995.72;4978567;28;20056;-64
2022/05/29 00:03:05;;;;;;;6.78;2.15;;;;;;;12.09;64.83;101992.28;4984151;28;20133;-62
2022/05/29 00:05:30;;;;;;;8.70;2.45;;;;;;;12.11;64.64;101989.72;4997265;28;20169;-62
2022/05/29 00:07:56;;;;;;;8.75;2.40;;;;;;;12.10;64.98;101988.81;4983030;28;20042;-63
2022/05/29 00:10:22;;;;;;;8.40;2.70;;;;;;;12.22;64.26;101995.19;4975856;28;20125;-63
2022/05/29 00:12:47;;;;;;;7.60;2.10;;;;;;;12.34;64.15;101980.69;4983243;28;20058;-63
2022/05/29 00:15:13;;;;;;;7.60;2.40;;;;;;;12.42;63.55;101987.00;4979319;28;20599;-63
2022/05/29 00:17:39;;;;;;;8.73;2.28;;;;;;;12.55;63.02;101989.03;4981501;28;20053;-63
2022/05/29 00:20:05;;;;;;;7.00;2.03;;;;;;;12.60;62.21;101983.91;4983687;28;20037;-63
2022/05/29 00:22:32;;;;;;;5.75;2.15;;;;;;;12.67;61.80;101983.22;4975704;28;20034;-63
2022/05/29 00:24:58;;;;;;;11.10;2.30;;;;;;;12.72;61.70;101985.91;4985661;28;20041;-62
2022/05/29 00:27:24;;;;;;;8.05;2.20;;;;;;;12.76;61.65;101980.78;4982542;28;20034;-64
2022/05/29 00:29:49;;;;;;;12.00;2.33;;;;;;;12.80;61.50;101981.75;4983557;28;20519;-63
2022/05/29 00:32:16;;;;;;;6.93;2.00;;;;;;;12.82;60.77;101983.53;4976225;28;20054;-65
2022/05/29 00:34:41;;;;;;;6.13;1.90;;;;;;;12.83;60.35;101981.78;4982663;28;20148;-63
2022/05/29 00:37:09;;;;;;;5.72;1.98;;;;;;;12.83;60.22;101977.44;4983208;28;20466;-62
2022/05/29 00:39:38;;;;;;;6.13;1.80;;;;;;;12.82;59.71;101972.19;4986447;28;20042;-63
2022/05/29 00:42:10;;;;;;;5.43;1.80;;;;;;;12.71;59.82;101971.94;4981516;28;20099;-63
2022/05/29 00:44:35;;;;;;;8.10;2.00;;;;;;;12.59;59.34;101971.69;4977386;28;20056;-62
2022/05/29 00:47:11;;;;;;;5.70;1.90;;;;;;;12.48;59.72;101974.06;4985202;28;20045;-62
2022/05/29 00:49:39;;;;;;;5.80;1.80;;;;;;;12.36;60.39;101965.03;4982596;28;20060;-64
2022/05/29 00:52:19;;;;;;;7.72;2.00;;;;;;;12.25;61.09;101961.28;4983282;28;20038;-62
2022/05/29 00:55:00;;;;;;;5.47;2.00;;;;;;;12.14;61.73;101961.91;4983095;28;20192;-63
2022/05/29 00:57:35;;;;;;;5.82;1.95;;;;;;;12.06;62.13;101958.25;4981385;28;20068;-62
2022/05/29 01:00:10;;;;;;;9.10;1.90;;;;;;;11.98;62.64;101957.16;4985250;28;20066;-64
2022/05/29 01:02:35;;;;;;;5.28;1.83;;;;;;;11.92;63.04;101950.88;4977644;28;20138;-62
2022/05/29 01:05:04;;;;;;;6.32;1.90;;;;;;;11.85;63.22;101944.63;4979120;28;20065;-63
2022/05/29 01:07:30;;;;;;;6.80;2.00;;;;;;;11.79;63.29;101939.25;4981636;28;20044;-63
2022/05/29 01:09:56;;;;;;;6.97;1.92;;;;;;;11.78;63.48;101940.09;4983954;28;20433;-63
2022/05/29 01:12:42;;;;;;;6.90;2.20;;;;;;;11.80;63.95;101933.19;4975746;28;20148;-63
2022/05/29 01:15:20;;;;;;;8.65;2.17;;;;;;;11.84;64.59;101932.41;4985956;28;20046;-62
2022/05/29 01:18:19;;;;;;;5.20;2.15;;;;;;;11.94;64.84;101934.41;4984004;28;20517;-63
2022/05/29 01:21:10;;;;;;;8.30;2.22;;;;;;;12.04;64.94;101933.78;4987609;28;20053;-63
2022/05/29 01:24:09;;;;;;;5.40;2.30;;;;;;;12.12;65.34;101927.03;4985255;28;20048;-62
2022/05/29 01:27:03;;;;;;;6.80;2.30;;;;;;;12.31;64.93;101924.84;4978153;28;20053;-62
2022/05/29 01:29:41;;;;;;;7.95;2.63;;;;;;;12.43;64.68;101925.09;4987283;28;20048;-62
2022/05/29 01:32:22;;;;;;;11.13;2.80;;;;;;;12.53;64.61;101920.09;5001783;28;20041;-63
2022/05/29 01:34:53;;;;;;;7.30;2.40;;;;;;;12.61;64.14;101909.81;4988431;28;20132;-63
2022/05/29 01:37:35;;;;;;;6.80;2.20;;;;;;;12.70;64.17;101912.63;4985977;28;20069;-61
2022/05/29 01:40:10;;;;;;;9.98;2.58;;;;;;;12.76;64.37;101911.84;4988391;28;20046;-63
2022/05/29 01:42:42;;;;;;;6.75;2.20;;;;;;;12.82;64.08;101910.25;4978283;28;22135;-63
2022/05/29 01:45:17;;;;;;;5.60;2.20;;;;;;;12.88;63.54;101906.88;4986669;28;20046;-63
2022/05/29 01:47:45;;;;;;;6.28;2.20;;;;;;;12.88;63.78;101905.16;4989010;28;20064;-63
2022/05/29 01:50:23;;;;;;;7.30;2.35;;;;;;;12.85;63.38;101907.72;4984385;28;20069;-62
2022/05/29 01:53:10;;;;;;;7.25;2.33;;;;;;;12.92;62.87;101898.25;4985840;28;20045;-62
2022/05/29 01:55:55;;;;;;;6.97;2.08;;;;;;;12.95;63.40;101890.44;4983168;28;20591;-63
2022/05/29 01:58:32;;;;;;;6.15;2.15;;;;;;;13.00;62.92;101891.41;4978490;28;20176;-63
2022/05/29 02:01:03;;;;;;;8.75;2.22;;;;;;;13.01;62.82;101891.44;4983618;28;20696;-64
2022/05/29 02:03:34;;;;;;;7.47;1.92;;;;;;;13.11;62.46;101889.91;4984810;28;20041;-62
2022/05/29 02:06:06;;;;;;;7.07;2.30;;;;;;;13.20;62.43;101890.09;4983275;28;20505;-63
2022/05/29 02:08:53;;;;;;;6.35;1.90;;;;;;;13.28;61.97;101888.53;4983318;28;20224;-61
2022/05/29 02:11:25;;;;;;;10.80;2.47;;;;;;;13.35;61.06;101884.28;4983201;28;20057;-64
2022/05/29 02:14:04;;;;;;;10.85;1.88;;;;;;;13.47;61.04;101884.50;4988426;28;20495;-62
2022/05/29 02:16:47;;;;;;;7.25;1.90;;;;;;;13.49;60.99;101887.13;4975075;28;20042;-62
2022/05/29 02:19:20;;;;;;;7.03;2.22;;;;;;;13.55;60.54;101884.59;4981431;28;20038;-63
2022/05/29 02:21:52;;;;;;;7.20;1.90;;;;;;;13.62;60.31;101883.88;4979737;28;20046;-63
2022/05/29 02:24:22;;;;;;;9.43;2.30;;;;;;;13.69;59.97;101883.13;4979762;28;20049;-62
2022/05/29 02:26:55;;;;;;;9.95;2.28;;;;;;;13.75;59.82;101878.84;4985443;28;20065;-63
2022/05/29 02:29:21;;;;;;;7.13;1.90;;;;;;;13.77;59.72;101873.66;4985952;28;20042;-62
2022/05/29 02:32:10;;;;;;;5.95;2.00;;;;;;;13.80;59.39;101871.94;4984663;28;20061;-62
2022/05/29 02:34:47;;;;;;;6.85;2.00;;;;;;;13.82;59.41;101872.88;4975739;28;20505;-63
2022/05/29 02:37:21;;;;;;;8.35;1.98;;;;;;;13.85;59.28;101866.78;4985120;28;20046;-63
2022/05/29 02:39:53;;;;;;;;;;;;;;;13.83;59.33;101865.88;4986087;28;20200;-63
2022/05/29 02:42:40;;;;;;;7.60;1.90;;;;;;;13.84;59.10;101859.78;4975534;28;19960;-63
2022/05/29 02:45:12;;;;;;;6.65;2.00;;;;;;;13.96;58.87;101864.34;4987748;28;20045;-63
2022/05/29 02:47:48;;;;;;;5.07;1.90;;;;;;;13.99;58.66;101862.63;4989894;28;20049;-63
2022/05/29 02:50:24;;;;;;;7.03;2.10;;;;;;;13.88;59.22;101860.72;4981874;28;20042;-62
2022/05/29 02:52:54;;;;;;;8.50;2.00;;;;;;;13.94;59.08;101864.31;4984233;28;20045;-63
2022/05/29 02:55:22;;;;;;;7.85;2.00;;;;;;;13.84;59.42;101865.03;4981531;28;20068;-61
2022/05/29 02:57:51;;;;;;;5.82;1.90;;;;;;;13.86;59.58;101863.28;4979862;28;20038;-63
2022/05/29 03:00:17;;;;;;;7.13;1.90;;;;;;;13.74;57.82;101853.50;4980541;28;20045;-62
2022/05/29 03:03:01;;;;;;;5.72;1.70;;;;;;;13.98;57.42;101859.97;4987461;28;20433;-62
2022/05/29 03:05:49;;;;;;;6.55;1.80;;;;;;;13.75;57.66;101857.91;4983930;28;20443;-63
2022/05/29 03:08:32;;;;;;;4.60;1.70;;;;;;;13.71;57.51;101853.47;4973540;28;20069;-64
2022/05/29 03:11:15;;;;;;;6.88;1.50;;;;;;;13.63;57.63;101860.31;4981464;28;20038;-64
2022/05/29 03:13:53;;;;;;;7.30;1.60;;;;;;;13.58;58.33;101868.97;4980186;28;20049;-63
2022/05/29 03:17:00;;;;;;;5.63;1.50;;;;;;;13.24;60.47;101870.97;4979452;28;20485;-63
2022/05/29 03:19:34;;;;;;;4.80;1.40;;;;;;;13.25;62.45;101875.34;4980124;28;20050;-63
2022/05/29 03:22:15;;;;;;;5.28;1.35;;;;;;;13.28;62.46;101871.94;4981744;28;20045;-64
2022/05/29 03:24:55;;;;;;;2.83;1.20;;;;;;;13.14;63.54;101876.00;4982658;28;20881;-62
2022/05/29 03:27:22;;;;;;;5.38;1.23;;;;;;;13.23;63.73;101879.72;4985481;28;20572;-62
2022/05/29 03:30:00;;;;;;;3.55;1.42;;;;;;;13.29;63.76;101882.44;4982621;28;20074;-62
2022/05/29 03:32:26;;;;;;;4.43;1.50;;;;;;;13.23;64.11;101874.47;4972361;28;20386;-64
2022/05/29 03:34:53;;;;;;;5.80;1.52;;;;;;;13.23;64.63;101878.81;4983285;28;20048;-61
2022/05/29 03:37:19;;;;;;;5.63;1.60;;;;;;;13.21;64.64;101878.78;4982176;28;20521;-62
2022/05/29 03:39:44;;;;;;;6.80;1.90;;;;;;;13.13;65.95;101869.88;4982968;28;20037;-63
2022/05/29 03:42:10;;;;;;;5.30;1.75;;;;;;;13.12;66.64;101861.97;4985767;28;20034;-62
2022/05/29 03:44:36;;;;;;;7.00;1.98;;;;;;;13.14;67.02;101853.34;4975135;28;20050;-63
2022/05/29 03:47:01;;;;;;;3.33;1.60;;;;;;;13.15;67.59;101848.97;4983492;28;20112;-62
2022/05/29 03:49:27;;;;;;;9.15;2.35;;;;;;;13.15;67.43;101847.25;4980890;28;20038;-62
2022/05/29 03:51:52;;;;;;;10.80;2.30;;;;;;;13.10;67.97;101843.63;4984759;28;20369;-62
2022/05/29 03:54:18;;;;;;;7.60;2.35;;;;;;;13.17;68.54;101839.44;4971780;28;20100;-62
2022/05/29 03:56:44;;;;;;;6.47;2.05;;;;;;;13.19;68.69;101842.94;4982470;28;20545;-62
2022/05/29 03:59:09;;;;;;;5.78;1.80;;;;;;;13.17;68.87;101840.31;4987555;28;20099;-62
2022/05/29 04:01:35;;;;;;;7.22;1.92;;;;;;;13.19;68.93;101838.59;4978851;28;20222;-62
2022/05/29 04:04:01;;;;;;;7.20;1.70;;;;;;;13.14;69.38;101835.00;4982499;28;20497;-63
2022/05/29 04:06:28;;;;;;;5.15;1.67;;;;;;;13.30;68.86;101839.66;4975343;28;20092;-62
2022/05/29 04:14:26;;;;;;;6.45;2.20;;;;;;;13.33;67.91;101826.63;4975901;28;20052;-62
2022/05/29 04:16:52;;;;;;;6.22;2.00;;;;;;;13.39;67.79;101824.13;4987871;28;20041;-63
2022/05/29 04:19:18;;;;;;;4.47;1.90;;;;;;;13.43;67.96;101827.66;4982732;28;20042;-61
2022/05/29 04:21:44;;;;;;;7.88;2.13;;;;;;;13.53;67.30;101832.22;4983868;28;20418;-62
2022/05/29 04:24:09;;;;;;;7.60;1.80;;;;;;;13.54;67.31;101820.00;4983956;28;20046;-61
2022/05/29 04:26:36;;;;;;;10.48;2.05;;;;;;;13.55;67.42;101824.34;4977515;28;20068;-62
2022/05/29 04:29:03;;;;;;;6.18;1.70;;;;;;;13.63;67.03;101821.00;4985626;28;20164;-62
2022/05/29 04:31:29;;;;;;;6.75;1.80;;;;;;;13.67;66.50;101814.94;4982989;28;20577;-61
2022/05/29 04:33:54;;;;;;;5.43;1.77;;;;;;;13.65;66.34;101836.75;4984326;28;20341;-63
2022/05/29 04:36:19;;;;;;;5.65;1.92;;;;;;;13.57;65.82;101836.63;4975540;28;20107;-62
2022/05/29 04:38:45;;;;;;;6.78;1.83;;;;;;;13.23;64.51;101835.19;4984687;28;20052;-63
2022/05/29 04:41:10;;;;;;;3.28;1.42;;;;;;;13.08;64.84;101834.88;4980906;28;20052;-63
2022/05/29 04:43:37;;;;;;;5.72;1.60;;;;;;;13.12;64.53;101834.09;4983654;28;20089;-64
2022/05/29 04:46:03;;;;;;;6.05;1.70;;;;;;;13.11;65.07;101832.31;4982467;28;20046;-62
2022/05/29 04:48:29;;;;;;;7.05;1.60;;;;;;;13.24;65.38;101822.94;4979290;28;20104;-63
2022/05/29 04:51:02;;;;;;;5.32;1.42;;;;;;;13.12;64.57;101830.56;4987661;28;20549;-64
2022/05/29 04:53:29;;;;;;;7.28;1.80;;;;;;;13.12;65.47;101822.69;4989369;28;20056;-62
2022/05/29 04:55:56;;;;;;;6.65;1.70;;;;;;;13.33;65.25;101816.16;4982919;28;20082;-61
2022/05/29 04:58:23;;;;;;;5.50;1.80;;;;;;;13.52;64.63;101813.84;4980315;28;20046;-64
2022/05/29 05:00:48;;;;;;;4.72;1.58;;;;;;;13.48;64.79;101806.78;4982729;28;20038;-64
2022/05/29 05:03:14;;;;;;;3.05;1.48;;;;;;;13.60;64.79;101814.84;4985589;28;20054;-62
2022/05/29 05:05:40;;;;;;;5.43;1.60;;;;;;;13.66;64.39;101813.19;4987321;28;20468;-63
2022/05/29 05:08:05;;;;;;;6.53;1.60;;;;;;;13.59;65.00;101820.94;4985435;28;20061;-63
2022/05/29 05:10:31;;;;;;;8.45;1.80;;;;;;;13.63;65.09;101809.66;4979379;28;20046;-64
2022/05/29 05:12:56;;;;;;;4.68;1.70;;;;;;;13.44;65.75;101808.47;4981965;28;20505;-62
2022/05/29 05:15:22;;;;;;;5.13;1.70;;;;;;;13.37;65.16;101806.59;4989629;28;20045;-62
2022/05/29 05:17:48;;;;;;;5.07;1.80;;;;;;;13.46;65.07;101808.50;4987365;28;20038;-62
2022/05/29 05:20:14;;;;;;;6.95;1.85;;;;;;;13.54;65.01;101815.59;4983753;28;20155;-62
2022/05/29 05:22:40;;;;;;;5.68;2.00;;;;;;;13.59;65.09;101819.22;4984312;28;20511;-61
2022/05/29 05:25:07;;;;;;;5.38;1.80;;;;;;;13.68;65.72;101811.47;4986887;28;20046;-62
2022/05/29 05:27:32;;;;;;;4.65;1.70;;;;;;;13.76;65.82;101814.22;4987331;28;20151;-62
2022/05/29 05:29:58;;;;;;;5.10;1.80;;;;;;;13.85;65.87;101809.09;4985841;28;20128;-62
2022/05/29 05:32:23;;;;;;;4.75;1.92;;;;;;;13.86;66.45;101810.88;4980209;28;20136;-62
2022/05/29 05:34:48;;;;;;;5.90;1.92;;;;;;;13.91;66.68;101816.16;4982652;28;20069;-63
2022/05/29 05:37:16;;;;;;;4.25;1.80;;;;;;;13.72;66.13;101812.44;4986336;28;20042;-62
2022/05/29 05:39:42;;;;;;;5.50;1.77;;;;;;;13.81;66.30;101812.53;4983286;28;20077;-62
2022/05/29 05:42:07;;;;;;;4.50;1.90;;;;;;;13.74;66.26;101819.44;4985289;28;20042;-62
2022/05/29 05:44:33;;;;;;;7.75;1.90;;;;;;;13.69;65.77;101821.09;4978172;28;20057;-63
2022/05/29 05:46:58;;;;;;;5.72;2.00;;;;;;;13.77;65.65;101824.75;4989721;28;20548;-62
2022/05/29 05:49:24;;;;;;;6.07;2.00;;;;;;;13.76;65.86;101827.31;4980107;28;20042;-63
2022/05/29 05:51:50;;;;;;;5.95;2.00;;;;;;;13.76;66.20;101822.97;4989962;28;20050;-63
2022/05/29 05:54:16;;;;;;;5.10;1.90;;;;;;;13.80;66.75;101821.25;4978356;28;20115;-64
2022/05/29 05:56:43;;;;;;;6.80;2.10;;;;;;;13.84;67.35;101817.84;4984933;28;20517;-63
2022/05/29 05:59:09;;;;;;;5.65;2.20;;;;;;;13.95;67.07;101802.28;4984757;28;20085;-63
2022/05/29 06:01:35;;;;;;;8.13;2.05;;;;;;;14.12;67.40;101799.03;4988659;28;20121;-63
2022/05/29 06:04:00;;;;;;;9.98;2.10;;;;;;;14.32;65.41;101809.78;4984802;28;20665;-62
2022/05/29 06:06:25;;;;;;;5.28;1.90;;;;;;;15.06;64.34;101803.66;4975976;28;20038;-62
2022/05/29 06:08:51;;;;;;;7.18;1.92;;;;;;;16.26;62.02;101801.94;4985825;28;20128;-62
2022/05/29 06:11:16;;;;;;;5.50;1.70;;;;;;;17.37;57.02;101792.59;4983847;28;20062;-61
2022/05/29 06:13:41;;;;;;;6.63;1.73;;;;;;;17.65;52.19;101798.75;4985160;28;20065;-62
2022/05/29 06:16:08;;;;;;;6.80;1.80;;;;;;;17.49;51.91;101789.09;4985098;28;20046;-63
2022/05/29 06:18:35;;;;;;;7.47;2.30;;;;;;;16.97;56.17;101783.78;4976967;28;20149;-62
2022/05/29 06:21:04;;;;;;;6.47;2.03;;;;;;;16.83;57.39;101789.00;4983343;28;20498;-62
2022/05/29 06:23:30;;;;;;;8.35;2.10;;;;;;;16.75;57.50;101788.13;4985510;28;20099;-67
2022/05/29 06:25:56;;;;;;;6.30;2.13;;;;;;;16.57;59.62;101778.38;4988137;28;20475;-63
2022/05/29 06:28:21;;;;;;;6.88;2.00;;;;;;;17.00;58.27;101782.03;4982498;28;20045;-64
2022/05/29 06:30:47;;;;;;;6.60;1.80;;;;;;;18.78;55.37;101776.41;4984595;28;20041;-62
2022/05/29 06:33:12;;;;;;;6.28;1.70;;;;;;;20.08;49.72;101792.94;4986214;28;20049;-63
2022/05/29 06:35:39;;;;;;;6.32;1.50;;;;;;;20.20;46.44;101792.78;4984826;28;20060;-63
2022/05/29 06:38:04;;;;;;;4.88;1.70;;;;;;;18.68;50.03;101797.59;4988934;28;20246;-63
2022/05/29 06:40:30;;;;;;;7.18;2.00;;;;;;;17.58;54.51;101799.59;4977666;28;20482;-62
2022/05/29 06:42:55;;;;;;;8.23;2.08;;;;;;;16.97;56.90;101803.09;4985483;28;20053;-63
2022/05/29 06:45:20;;;;;;;7.80;2.10;;;;;;;16.74;59.14;101801.28;4983848;28;20168;-63
2022/05/29 06:47:46;;;;;;;7.68;1.67;;;;;;;16.59;58.29;101800.34;4986047;28;20053;-63
2022/05/29 06:50:12;;;;;;;6.65;1.80;;;;;;;16.54;58.24;101799.41;4981344;28;20041;-63
2022/05/29 06:52:38;;;;;;;6.80;1.92;;;;;;;16.39;57.52;101796.75;4975811;28;20276;-64
2022/05/29 06:55:04;;;;;;;4.35;1.88;;;;;;;16.34;58.72;101792.34;4987648;28;20390;-63
2022/05/29 06:57:46;;;;;;;6.85;2.00;;;;;;;16.16;59.91;101801.03;4982814;28;20607;-63
2022/05/29 07:08:33;;;;;;;8.52;2.30;;;;;;;14.98;60.63;101806.19;4980748;28;20774;-63
2022/05/29 07:11:02;;;;;;;5.95;1.98;;;;;;;14.90;61.15;101800.88;4984092;28;20069;-63
2022/05/29 07:13:31;;;;;;;7.97;2.25;;;;;;;14.77;61.75;101804.22;4983194;28;20400;-62
2022/05/29 07:15:57;;;;;;;8.90;2.40;;;;;;;14.44;62.74;101796.84;4984602;28;20069;-63
2022/05/29 07:18:22;;;;;;;7.88;2.45;;;;;;;14.32;63.49;101801.91;4977564;28;20401;-62
2022/05/29 07:20:47;;;;;;;5.85;2.13;;;;;;;14.14;64.20;101801.69;4983738;28;20034;-63
2022/05/29 07:23:14;;;;;;;6.45;2.00;;;;;;;13.99;64.56;101797.09;4984020;28;20084;-62
2022/05/29 07:25:40;;;;;;;4.70;1.90;;;;;;;13.85;66.11;101801.25;4984806;28;20037;-62
2022/05/29 07:28:05;;;;;;;6.75;2.10;;;;;;;13.56;65.30;101798.19;4983568;28;20056;-62
2022/05/29 07:30:31;;;;;;;6.53;2.03;;;;;;;13.82;65.30;101804.72;4975596;28;20594;-62
2022/05/29 07:33:00;;;;;;;4.93;1.92;;;;;;;14.00;64.74;101796.22;4982390;28;20266;-62
2022/05/29 07:35:25;;;;;;;7.10;2.03;;;;;;;14.11;63.92;101799.00;4986533;28;20348;-64
2022/05/29 07:37:51;;;;;;;4.47;1.95;;;;;;;13.82;67.16;101788.09;4980885;28;20050;-63
2022/05/29 07:40:16;;;;;;;7.90;2.08;;;;;;;14.00;66.94;101796.22;4957323;28;20045;-64
2022/05/29 07:45:25;;;;;;;7.05;2.17;;;;;;;14.17;65.70;101786.84;4982995;28;20642;-62
2022/05/29 07:47:51;;;;;;;5.65;1.95;;;;;;;14.44;64.84;101774.97;4982220;28;20124;-62
2022/05/29 07:50:20;;;;;;;5.95;2.00;;;;;;;14.60;64.83;101776.91;4975813;28;20042;-62
2022/05/29 07:52:46;;;;;;;6.65;2.00;;;;;;;14.90;64.56;101778.97;4982733;28;20057;-62
2022/05/29 07:55:13;;;;;;;4.97;1.83;;;;;;;15.00;63.98;101775.59;4978685;28;20030;-63
2022/05/29 07:57:38;;;;;;;7.68;2.15;;;;;;;14.85;62.78;101783.31;4975598;28;20050;-63
2022/05/29 08:00:10;;;;;;;5.32;1.85;;;;;;;14.49;61.64;101792.53;4984285;28;20489;-64
2022/05/29 08:02:35;;;;;;;9.45;2.00;;;;;;;14.77;61.73;101784.97;4977231;28;20050;-62
2022/05/29 08:05:02;;;;;;;9.38;1.85;;;;;;;14.57;62.67;101790.91;4980373;28;20491;-63
2022/05/29 08:07:28;;;;;;;8.40;1.90;;;;;;;14.60;63.63;101796.16;4982825;28;20057;-62
2022/05/29 08:09:53;;;;;;;5.10;1.60;;;;;;;14.69;64.13;101790.16;4978472;28;20050;-63
2022/05/29 08:12:19;;;;;;;6.50;1.65;;;;;;;14.80;63.60;101787.63;4975411;28;20480;-63
2022/05/29 08:14:44;;;;;;;10.05;1.80;;;;;;;14.69;63.54;101789.28;4982065;28;20117;-64
2022/05/29 08:17:09;;;;;;;5.50;1.50;;;;;;;14.85;64.29;101797.31;4985976;28;20129;-62
2022/05/29 08:19:36;;;;;;;7.07;1.60;;;;;;;14.83;63.67;101783.28;4979369;28;20053;-63
2022/05/29 08:22:02;;;;;;;8.20;1.83;;;;;;;15.58;64.86;101787.50;4981118;28;20573;-62
2022/05/29 08:32:39;;;;;;;5.23;1.50;;;;;;;16.49;57.34;101774.84;4976201;28;20053;-63
2022/05/29 08:35:05;;;;;;;3.00;1.38;;;;;;;16.74;56.78;101772.31;4986221;28;20329;-64
2022/05/29 08:37:30;;;;;;;7.07;1.40;;;;;;;16.47;55.77;101773.06;4998195;28;20203;-63
2022/05/29 08:39:55;;;;;;;6.75;1.60;;;;;;;16.46;55.60;101769.59;4981286;28;20046;-62
2022/05/29 08:42:25;;;;;;;4.35;1.20;;;;;;;16.62;55.90;101766.16;4976498;28;20547;-62
2022/05/29 08:44:52;;;;;;;7.22;1.48;;;;;;;16.60;55.81;101777.53;4997303;28;20038;-62
2022/05/29 08:47:28;;;;;;;7.30;1.30;;;;;;;16.66;56.39;101781.94;4981537;28;20411;-62
2022/05/29 08:49:54;;;;;;;4.07;1.00;;;;;;;16.20;54.07;101784.38;4979991;28;20034;-63
2022/05/29 08:52:35;;;;;;;6.72;0.80;;;;;;;16.32;52.49;101784.44;4970897;28;20048;-63
2022/05/29 08:55:27;;;;;;;1.75;0.70;;;;;;;16.89;52.84;101777.63;4979355;28;20045;-63
2022/05/29 08:58:05;;;;;;;3.22;0.75;;;;;;;17.63;53.43;101790.84;4981743;28;20042;-64
2022/05/29 09:01:04;;;;;;;3.00;0.60;;;;;;;18.42;52.40;101779.22;4972868;28;20117;-63
2022/05/29 09:03:42;;;;;;;1.42;0.60;;;;;;;18.74;50.46;101779.94;4981049;28;20046;-63
2022/05/29 09:06:17;;;;;;;1.92;0.52;;;;;;;19.24;49.86;101782.25;4983934;28;20097;-63
2022/05/29 09:08:48;;;;;;;1.52;0.60;;;;;;;18.86;47.53;101773.72;4982813;28;20516;-64
2022/05/29 09:11:27;;;;;;;1.23;0.40;;;;;;;18.94;48.25;101766.63;4972017;28;20486;-63
2022/05/29 09:14:05;;;;;;;1.90;0.50;;;;;;;18.83;48.71;101779.91;4977442;28;20168;-62
2022/05/29 09:16:40;;;;;;;2.30;0.63;;;;;;;18.56;49.53;101772.13;4973831;28;20935;-63
2022/05/29 09:19:27;;;;;;;5.07;0.70;;;;;;;18.65;49.52;101769.44;4983304;28;20497;-63
2022/05/29 09:21:59;;;;;;;2.50;0.90;;;;;;;18.70;49.83;101762.38;4974857;28;20640;-63
2022/05/29 09:24:58;;;;;;;5.57;1.52;;;;;;;18.88;49.41;101767.53;4967498;28;20556;-63
2022/05/29 09:27:24;;;;;;;3.10;1.00;;;;;;;19.44;46.66;101775.03;4980408;28;20054;-63
2022/05/29 09:29:51;;;;;;;2.47;0.88;;;;;;;19.41;48.43;101766.25;4974177;28;20050;-63
2022/05/29 09:32:25;;;;;;;2.40;0.70;;;;;;;19.78;46.35;101759.75;4971570;28;20042;-63
2022/05/29 09:35:24;;;;;;;3.17;0.80;;;;;;;20.05;45.71;101752.41;4982031;28;20046;-64
2022/05/29 09:37:59;;;;;;;4.35;0.70;;;;;;;20.23;47.45;101747.75;4985023;28;20053;-62
2022/05/29 09:40:53;;;;;;;2.78;0.73;;;;;;;20.71;45.49;101752.44;4974183;28;20057;-63
2022/05/29 09:43:22;;;;;;;4.63;0.90;;;;;;;20.65;44.61;101762.22;4982898;28;20194;-63
2022/05/29 09:45:47;;;;;;;6.85;0.95;;;;;;;19.84;45.72;101762.31;4981665;28;20049;-65
2022/05/29 09:51:21;;;;;;;3.58;1.10;;;;;;;18.07;53.05;101769.66;4983333;28;20048;-64
2022/05/29 09:53:58;;;;;;;3.38;0.95;;;;;;;17.44;53.65;101771.50;4979658;28;20119;-64
2022/05/29 09:56:30;;;;;;;7.15;1.27;;;;;;;16.93;55.32;101771.47;4980910;28;20048;-63
2022/05/29 09:59:15;;;;;;;6.55;1.10;;;;;;;16.17;58.35;101771.19;4984652;28;20088;-63
2022/05/29 10:01:45;;;;;;;7.50;1.45;;;;;;;15.82;59.80;101779.78;4985660;28;20074;-63
2022/05/29 10:04:33;;;;;;;6.10;1.60;;;;;;;15.15;60.79;101773.09;4981395;28;20038;-62
2022/05/29 10:06:59;;;;;;;6.70;1.35;;;;;;;15.59;60.00;101778.75;4985053;28;20128;-63
2022/05/29 10:09:26;;;;;;;8.15;1.67;;;;;;;16.39;59.80;101772.19;4984376;28;20350;-65
2022/05/29 10:12:13;;;;;;;5.82;1.77;;;;;;;16.67;59.34;101770.53;4982683;28;20049;-63
2022/05/29 10:14:43;;;;;;;7.75;1.48;;;;;;;16.48;57.15;101770.44;4979421;28;20467;-63
2022/05/29 10:17:16;;;;;;;9.40;1.80;;;;;;;16.67;56.50;101766.16;4987928;28;20046;-63
2022/05/29 10:19:45;;;;;;;6.70;1.70;;;;;;;16.91;56.83;101760.06;4979859;28;20397;-62
2022/05/29 10:22:23;;;;;;;6.22;1.45;;;;;;;16.59;56.48;101774.03;4983180;28;20076;-62
2022/05/29 10:24:48;;;;;;;4.93;1.50;;;;;;;16.20;57.37;101773.84;4982807;28;20050;-63
2022/05/29 10:27:27;;;;;;;8.52;1.80;;;;;;;16.10;57.10;101767.66;4983582;28;20102;-62
2022/05/29 10:29:59;;;;;;;6.18;1.60;;;;;;;16.51;57.31;101765.22;4980914;28;20046;-64
2022/05/29 10:32:29;;;;;;;8.95;1.40;;;;;;;16.31;57.42;101769.50;4971452;28;20122;-62
2022/05/29 10:35:20;;;;;;;8.60;1.70;;;;;;;16.77;55.77;101769.72;4987193;28;20041;-62
2022/05/29 10:37:46;;;;;;;7.97;1.80;;;;;;;16.78;54.97;101768.81;4987303;28;20060;-63
2022/05/29 10:40:14;;;;;;;6.43;1.48;;;;;;;17.24;55.08;101767.13;4979336;28;20042;-63
2022/05/29 10:42:44;;;;;;;4.65;1.40;;;;;;;17.47;54.82;101767.09;4978847;28;20513;-64
2022/05/29 10:45:47;;;;;;;6.28;1.60;;;;;;;17.50;54.63;101775.91;4984560;28;20123;-64
2022/05/29 10:48:37;;;;;;;5.55;1.55;;;;;;;16.70;54.90;101768.81;4979591;28;20037;-63
2022/05/29 10:51:35;;;;;;;10.50;1.55;;;;;;;16.20;55.73;101774.75;4981509;28;20054;-64
2022/05/29 10:54:31;;;;;;;5.20;1.40;;;;;;;17.07;54.26;101771.50;4984668;28;20073;-63
2022/05/29 10:57:21;;;;;;;7.18;1.70;;;;;;;17.53;50.79;101765.34;4983059;28;20500;-63
2022/05/29 11:00:08;;;;;;;9.25;1.60;;;;;;;17.67;51.03;101758.34;4981594;28;20469;-63
2022/05/29 11:05:24;;;;;;;8.75;1.60;;;;;;;18.34;50.55;101762.53;4983399;28;20052;-63
2022/05/29 11:08:05;;;;;;;7.30;1.50;;;;;;;18.64;45.58;101751.84;4985413;28;20406;-64
2022/05/29 11:10:35;;;;;;;6.03;1.40;;;;;;;18.29;47.38;101751.13;4973127;28;20633;-65
2022/05/29 11:13:39;;;;;;;5.22;1.13;;;;;;;18.99;45.33;101741.03;4983828;28;20052;-64
2022/05/29 11:16:41;;;;;;;5.82;1.17;;;;;;;18.44;43.89;101748.38;4983659;28;20526;-64
2022/05/29 11:19:17;;;;;;;7.10;0.95;;;;;;;18.14;44.40;101749.41;4992097;28;20136;-63
2022/05/29 11:22:02;;;;;;;6.63;1.30;;;;;;;18.51;43.60;101739.56;4987978;28;20666;-64
2022/05/29 11:25:06;;;;;;;4.47;1.10;;;;;;;18.44;43.60;101743.09;4972762;28;20107;-63
2022/05/29 11:27:56;;;;;;;3.87;1.20;;;;;;;18.00;43.26;101745.94;4976977;28;20045;-63
2022/05/29 11:30:30;;;;;;;5.47;1.42;;;;;;;18.16;44.60;101750.28;4976524;28;20081;-62
2022/05/29 11:33:11;;;;;;;6.83;1.37;;;;;;;18.17;43.98;101744.13;4983612;28;20201;-64
2022/05/29 11:36:13;;;;;;;9.65;1.25;;;;;;;18.78;43.81;101734.16;4982709;28;20046;-64
2022/05/29 11:39:17;;;;;;;5.95;1.40;;;;;;;17.81;42.22;101739.81;4973975;28;20046;-64
2022/05/29 11:41:49;;;;;;;7.20;1.20;;;;;;;18.58;42.62;101723.72;4988475;28;20046;-63
2022/05/29 11:44:27;;;;;;;4.60;1.10;;;;;;;18.68;43.09;101729.78;4981167;28;20566;-66
2022/05/29 11:53:03;;;;;;;4.43;1.10;;;;;;;18.08;44.37;101723.91;4978084;28;20173;-64
2022/05/29 11:55:35;;;;;;;6.93;1.10;;;;;;;17.38;45.74;101729.31;4980196;28;20459;-63
2022/05/29 11:58:23;;;;;;;8.52;1.20;;;;;;;16.68;46.41;101725.78;4986980;28;20916;-63
2022/05/29 12:01:13;;;;;;;5.25;1.20;;;;;;;16.62;46.70;101737.19;4980185;28;20078;-62
2022/05/29 12:03:57;;;;;;;4.45;1.42;;;;;;;16.72;46.12;101729.28;4979100;28;20114;-63
2022/05/29 12:06:30;;;;;;;6.97;1.40;;;;;;;16.54;46.82;101724.84;4978986;28;20037;-64
2022/05/29 12:09:11;;;;;;;4.95;1.25;;;;;;;17.60;46.94;101724.03;4982411;28;20665;-62
2022/05/29 12:12:05;;;;;;;6.55;1.30;;;;;;;17.97;45.71;101722.22;4983866;28;20635;-63
2022/05/29 12:14:35;;;;;;;5.28;1.38;;;;;;;18.84;44.07;101720.91;4974001;28;20270;-64
2022/05/29 12:17:30;;;;;;;5.70;1.10;;;;;;;19.07;41.69;101722.47;4983142;28;20077;-63
2022/05/29 12:20:06;;;;;;;6.22;1.10;;;;;;;19.37;42.01;101719.56;4979917;28;20041;-63
2022/05/29 12:22:42;;;;;;;4.68;1.30;;;;;;;19.91;42.18;101711.97;4989503;28;20038;-64
2022/05/29 12:25:26;;;;;;;4.40;1.27;;;;;;;20.33;40.87;101700.88;4979305;28;20054;-64